createdAt,value
2023-02-06T00:02:27.820Z,80.70
2023-02-06T00:04:56.689Z,106.22
2023-02-06T00:07:25.861Z,101.13
2023-02-06T00:09:54.953Z,82.33
2023-02-06T00:12:24.360Z,116.97
2023-02-06T00:14:54.896Z,85.70
2023-02-06T00:17:24.113Z,100.00
2023-02-06T00:19:52.898Z,105.45
2023-02-06T00:22:22.053Z,108.67
2023-02-06T00:24:51.128Z,114.18
2023-02-06T00:27:20.750Z,118.93
2023-02-06T00:29:50.065Z,112.68
2023-02-06T00:32:20.743Z,91.10
2023-02-06T00:34:49.475Z,112.32
2023-02-06T00:37:18.732Z,113.10
2023-02-06T00:39:47.755Z,111.63
2023-02-06T00:42:16.755Z,123.10
2023-02-06T00:44:47.006Z,118.60
2023-02-06T00:47:17.563Z,119.68
2023-02-06T00:49:48.685Z,124.97
2023-02-06T00:52:17.636Z,121.57
2023-02-06T00:54:48.516Z,126.55
2023-02-06T00:57:17.603Z,127.65
2023-02-06T00:59:46.609Z,102.22
2023-02-06T01:02:15.707Z,126.33
2023-02-06T01:04:44.334Z,128.27
2023-02-06T01:07:14.933Z,124.68
2023-02-06T01:09:43.982Z,123.90
2023-02-06T01:12:13.128Z,119.03
2023-02-06T01:14:42.481Z,84.43
2023-02-06T01:17:13.857Z,116.60
2023-02-06T01:19:42.574Z,119.45
2023-02-06T01:22:12.460Z,118.03
2023-02-06T01:24:43.044Z,117.05
2023-02-06T01:27:12.999Z,115.50
2023-02-06T01:29:43.385Z,113.68
2023-02-06T01:32:12.479Z,87.67
2023-02-06T01:34:41.171Z,111.25
2023-02-06T01:37:11.091Z,107.93
2023-02-06T01:39:42.634Z,108.55
2023-02-06T01:42:12.629Z,105.75
2023-02-06T01:44:41.770Z,115.93
2023-02-06T01:47:11.741Z,81.70
2023-02-06T01:49:43.208Z,101.10
2023-02-06T01:52:16.671Z,97.63
2023-02-06T01:54:51.333Z,106.75
2023-02-06T01:57:21.598Z,103.60
2023-02-06T01:59:55.681Z,105.35
2023-02-06T02:02:27.355Z,102.78
2023-02-06T02:04:56.268Z,104.28
2023-02-06T02:07:27.974Z,115.28
2023-02-06T02:09:58.493Z,121.88
2023-02-06T02:12:30.146Z,111.65
2023-02-06T02:14:59.720Z,122.10
2023-02-06T02:17:34.659Z,112.78
2023-02-06T02:20:24.051Z,122.25
2023-02-06T02:23:02.742Z,117.70
2023-02-06T02:26:21.951Z,122.20
2023-02-06T02:29:26.579Z,115.57
2023-02-06T02:32:26.269Z,109.22
2023-02-06T02:35:16.028Z,106.28
2023-02-06T02:37:55.505Z,127.57
2023-02-06T02:40:27.999Z,113.25
2023-02-06T02:43:05.297Z,120.85
2023-02-06T02:45:39.477Z,115.93
2023-02-06T02:48:12.790Z,117.70
2023-02-06T02:50:43.754Z,115.50
2023-02-06T02:53:13.307Z,114.95
2023-02-06T02:55:42.411Z,124.50
2023-02-06T02:58:15.267Z,128.77
2023-02-06T03:00:47.592Z,117.35
2023-02-06T03:03:20.726Z,129.00
2023-02-06T03:05:59.833Z,118.53
2023-02-06T03:08:33.790Z,116.05
2023-02-06T03:11:10.239Z,125.90
2023-02-06T03:13:41.250Z,115.75
2023-02-06T03:16:14.421Z,115.47
2023-02-06T03:18:46.037Z,128.75
2023-02-06T03:21:21.142Z,126.65
2023-02-06T03:23:52.791Z,121.97
2023-02-06T03:26:24.433Z,126.43
2023-02-06T03:28:54.818Z,135.27
2023-02-06T03:31:28.184Z,132.18
2023-02-06T03:34:00.980Z,131.52
2023-02-06T03:36:31.630Z,142.30
2023-02-06T03:39:00.785Z,124.75
2023-02-06T03:41:36.215Z,104.40
2023-02-06T03:44:10.134Z,126.18
2023-02-06T03:46:39.306Z,128.50
2023-02-06T03:49:09.836Z,143.13
2023-02-06T03:51:43.510Z,147.13
2023-02-06T03:54:13.677Z,164.88
2023-02-06T03:56:46.206Z,207.95
2023-02-06T03:59:15.542Z,275.55
2023-02-06T04:01:45.832Z,160.65
2023-02-06T04:04:16.252Z,163.38
2023-02-06T04:06:46.847Z,196.40
2023-02-06T04:09:15.901Z,365.02
2023-02-06T04:11:44.971Z,158.32
2023-02-06T04:14:14.267Z,271.37
2023-02-06T04:16:43.022Z,217.65
2023-02-06T04:19:12.097Z,177.60
2023-02-06T04:21:41.186Z,149.70
2023-02-06T04:24:11.687Z,139.43
2023-02-06T04:26:40.778Z,353.60
2023-02-06T04:29:09.847Z,479.57
2023-02-06T04:31:38.605Z,328.65
2023-02-06T04:34:08.033Z,425.83
2023-02-06T04:36:37.103Z,399.40
2023-02-06T04:39:07.321Z,283.33
2023-02-06T04:41:37.891Z,258.63
2023-02-06T04:44:07.119Z,182.45
2023-02-06T04:46:36.816Z,250.43
2023-02-06T04:49:06.095Z,262.35
2023-02-06T04:51:35.199Z,204.63
2023-02-06T04:54:04.567Z,318.25
2023-02-06T04:56:33.978Z,346.33
2023-02-06T04:59:04.584Z,285.30
2023-02-06T05:01:34.159Z,171.57
2023-02-06T05:04:03.363Z,148.10
2023-02-06T05:06:32.624Z,115.80
2023-02-06T05:09:02.060Z,136.57
2023-02-06T05:11:31.454Z,122.05
2023-02-06T05:14:00.519Z,117.80
2023-02-06T05:16:30.796Z,190.25
2023-02-06T05:18:59.943Z,214.25
2023-02-06T05:21:29.081Z,485.43
2023-02-06T05:23:58.236Z,207.93
2023-02-06T05:26:28.096Z,218.30
2023-02-06T05:28:56.867Z,229.00
2023-02-06T05:31:26.151Z,335.97
2023-02-06T05:33:56.826Z,217.05
2023-02-06T05:36:26.093Z,226.80
2023-02-06T05:38:55.177Z,115.07
2023-02-06T05:41:25.187Z,158.70
2023-02-06T05:43:53.958Z,304.95
2023-02-06T05:46:23.210Z,219.93
2023-02-06T05:48:52.542Z,565.13
2023-02-06T05:51:23.145Z,348.83
2023-02-06T05:53:52.304Z,665.50
2023-02-06T05:56:21.367Z,203.60
2023-02-06T05:58:50.157Z,346.40
2023-02-06T06:01:19.260Z,667.37
2023-02-06T06:03:48.417Z,589.25
2023-02-06T06:06:17.399Z,613.43
2023-02-06T06:08:47.917Z,292.52
2023-02-06T06:11:17.575Z,328.50
2023-02-06T06:13:46.373Z,280.47
2023-02-06T06:16:15.594Z,201.83
2023-02-06T06:18:44.599Z,573.40
2023-02-06T06:21:13.620Z,523.95
2023-02-06T06:23:43.671Z,470.70
2023-02-06T06:28:42.599Z,393.75
2023-02-06T06:31:13.074Z,365.02
2023-02-06T06:33:43.075Z,538.72
2023-02-06T06:36:14.475Z,345.30
2023-02-06T06:38:43.748Z,404.48
2023-02-06T06:41:14.287Z,179.60
2023-02-06T06:43:42.991Z,313.42
2023-02-06T06:46:12.302Z,145.35
2023-02-06T06:48:41.409Z,232.35
2023-02-06T06:51:10.489Z,309.80
2023-02-06T06:53:41.050Z,281.40
2023-02-06T06:56:13.723Z,292.42
2023-02-06T06:58:42.596Z,245.13
2023-02-06T07:01:11.726Z,123.03
2023-02-06T07:03:46.180Z,283.47
2023-02-06T07:06:16.929Z,151.38
2023-02-06T07:08:45.986Z,231.73
2023-02-06T07:11:18.427Z,180.20
2023-02-06T07:13:47.603Z,191.65
2023-02-06T07:16:16.761Z,138.18
2023-02-06T07:18:45.876Z,186.97
2023-02-06T07:21:16.013Z,144.45
2023-02-06T07:26:13.782Z,122.43
2023-02-06T07:28:43.891Z,123.18
2023-02-06T07:31:13.071Z,118.25
2023-02-06T07:33:42.375Z,107.90
2023-02-06T07:36:12.427Z,119.03
2023-02-06T07:41:12.398Z,125.68
2023-02-06T07:43:41.426Z,110.32
2023-02-06T07:46:12.052Z,81.85
2023-02-06T07:48:41.059Z,99.05
2023-02-06T07:51:10.830Z,110.30
2023-02-06T07:53:40.189Z,103.82
2023-02-06T07:56:13.597Z,123.15
2023-02-06T07:58:42.526Z,128.20
2023-02-06T08:01:13.007Z,127.47
2023-02-06T08:03:42.081Z,183.23
2023-02-06T08:06:11.954Z,190.88
2023-02-06T08:08:41.053Z,307.45
2023-02-06T08:11:11.334Z,213.60
2023-02-06T08:13:40.085Z,236.27
2023-02-06T08:16:12.040Z,280.67
2023-02-06T08:18:42.593Z,147.90
2023-02-06T08:21:14.537Z,219.63
2023-02-06T08:23:44.858Z,224.25
2023-02-06T08:26:16.345Z,305.48
2023-02-06T08:28:45.659Z,209.02
2023-02-06T08:31:16.662Z,169.27
2023-02-06T08:33:47.632Z,286.85
2023-02-06T08:36:20.728Z,258.30
2023-02-06T08:38:52.068Z,178.00
2023-02-06T08:41:22.534Z,135.88
2023-02-06T08:43:52.871Z,159.77
2023-02-06T08:46:23.268Z,170.23
2023-02-06T08:48:58.183Z,184.25
2023-02-06T08:51:28.147Z,160.40
2023-02-06T08:54:00.554Z,189.40
2023-02-06T08:56:30.786Z,256.65
2023-02-06T08:59:00.669Z,148.45
2023-02-06T09:01:30.895Z,168.60
2023-02-06T09:04:03.199Z,129.73
2023-02-06T09:06:32.849Z,121.85
2023-02-06T09:09:01.890Z,93.13
2023-02-06T09:11:31.440Z,100.00
2023-02-06T09:14:02.926Z,95.77
2023-02-06T09:16:33.353Z,79.05
2023-02-06T09:19:04.273Z,73.38
2023-02-06T09:21:35.508Z,75.68
2023-02-06T09:24:06.308Z,84.60
2023-02-06T09:26:44.849Z,73.32
2023-02-06T09:29:22.761Z,78.93
2023-02-06T09:31:51.618Z,76.80
2023-02-06T09:34:22.141Z,71.53
2023-02-06T09:36:51.201Z,67.50
2023-02-06T09:39:20.251Z,69.57
2023-02-06T09:41:51.000Z,59.30
2023-02-06T09:44:22.544Z,56.70
2023-02-06T09:46:53.572Z,62.25
2023-02-06T09:49:27.292Z,65.85
2023-02-06T09:52:14.385Z,60.13
2023-02-06T09:54:49.465Z,65.93
2023-02-06T09:57:22.407Z,67.40
2023-02-06T09:59:56.057Z,60.38
2023-02-06T10:02:38.098Z,69.20
2023-02-06T10:05:13.439Z,61.63
2023-02-06T10:07:57.401Z,69.65
2023-02-06T10:10:35.045Z,59.38
2023-02-06T10:13:07.235Z,67.75
2023-02-06T10:15:40.614Z,70.22
2023-02-06T10:18:14.767Z,64.85
2023-02-06T10:20:51.627Z,63.92
2023-02-06T10:23:24.370Z,65.10
2023-02-06T10:26:03.836Z,63.88
2023-02-06T10:28:33.770Z,58.67
2023-02-06T10:31:25.738Z,56.58
2023-02-06T10:34:04.895Z,54.90
2023-02-06T10:36:47.134Z,53.40
2023-02-06T10:39:40.623Z,53.35
2023-02-06T10:42:15.925Z,51.60
2023-02-06T10:44:51.580Z,53.55
2023-02-06T10:47:29.635Z,50.33
2023-02-06T10:50:02.427Z,53.90
2023-02-06T10:52:35.972Z,48.70
2023-02-06T10:55:14.557Z,41.85
2023-02-06T10:57:44.717Z,46.67
2023-02-06T11:00:19.079Z,49.60
2023-02-06T11:03:06.837Z,52.30
2023-02-06T11:05:37.095Z,58.55
2023-02-06T11:08:15.138Z,53.38
2023-02-06T11:10:43.872Z,58.20
2023-02-06T11:13:15.389Z,59.65
2023-02-06T11:15:50.479Z,67.55
2023-02-06T11:18:22.530Z,67.30
2023-02-06T11:20:54.258Z,67.50
2023-02-06T11:23:27.905Z,76.05
2023-02-06T11:26:09.101Z,70.35
2023-02-06T11:28:41.593Z,84.10
2023-02-06T11:31:11.990Z,87.93
2023-02-06T11:33:43.743Z,80.72
2023-02-06T11:36:25.895Z,94.57
2023-02-06T11:39:03.995Z,100.97
2023-02-06T11:41:33.489Z,102.22
2023-02-06T11:44:06.750Z,96.57
2023-02-06T11:46:36.812Z,104.75
2023-02-06T11:49:09.446Z,107.78
2023-02-06T11:51:52.712Z,111.97
2023-02-06T11:54:28.059Z,105.70
2023-02-06T11:57:03.488Z,106.88
2023-02-06T11:59:34.638Z,117.00
2023-02-06T12:02:07.121Z,114.25
2023-02-06T12:04:39.078Z,109.65
2023-02-06T12:07:14.119Z,115.90
2023-02-06T12:09:45.336Z,111.60
2023-02-06T12:12:20.919Z,119.10
2023-02-06T12:14:53.432Z,113.40
2023-02-06T12:17:27.332Z,119.25
2023-02-06T12:20:01.866Z,127.45
2023-02-06T12:22:35.746Z,111.38
2023-02-06T12:25:06.985Z,117.60
2023-02-06T12:27:39.355Z,125.10
2023-02-06T12:30:28.628Z,117.38
2023-02-06T12:33:03.619Z,131.45
2023-02-06T12:35:37.678Z,111.45
2023-02-06T12:38:13.991Z,106.10
2023-02-06T12:40:50.199Z,106.72
2023-02-06T12:43:20.202Z,112.82
2023-02-06T12:45:54.982Z,111.95
2023-02-06T12:48:29.515Z,100.63
2023-02-06T12:51:09.909Z,101.47
2023-02-06T12:53:42.208Z,104.78
2023-02-06T12:56:21.571Z,102.28
2023-02-06T12:58:54.630Z,105.63
2023-02-06T13:01:35.793Z,106.93
2023-02-06T13:04:06.582Z,110.53
2023-02-06T13:06:47.298Z,107.00
2023-02-06T13:09:21.105Z,107.32
2023-02-06T13:11:51.838Z,128.55
2023-02-06T13:14:23.242Z,126.72
2023-02-06T13:16:54.669Z,129.18
2023-02-06T13:19:30.325Z,122.28
2023-02-06T13:22:32.898Z,123.50
2023-02-06T13:25:03.631Z,125.70
2023-02-06T13:27:41.630Z,126.85
2023-02-06T13:30:47.240Z,123.90
2023-02-06T13:33:17.759Z,122.72
2023-02-06T13:35:57.233Z,123.40
2023-02-06T13:38:29.329Z,116.80
2023-02-06T13:41:34.232Z,118.55
2023-02-06T13:44:07.533Z,115.13
2023-02-06T13:46:53.497Z,113.18
2023-02-06T13:50:08.697Z,127.28
2023-02-06T13:52:41.220Z,126.43
2023-02-06T13:55:20.488Z,120.90
2023-02-06T13:57:59.177Z,125.25
2023-02-06T14:00:32.203Z,123.18
2023-02-06T14:03:07.425Z,116.13
2023-02-06T14:05:46.459Z,122.70
2023-02-06T14:08:22.356Z,130.68
2023-02-06T14:11:33.407Z,109.63
2023-02-06T14:14:17.747Z,141.13
2023-02-06T14:16:56.839Z,139.23
2023-02-06T14:19:32.670Z,124.55
2023-02-06T14:22:06.468Z,137.48
2023-02-06T14:24:51.771Z,134.80
2023-02-06T14:27:30.439Z,138.35
2023-02-06T14:30:06.378Z,130.57
2023-02-06T14:32:44.684Z,125.97
2023-02-06T14:35:22.939Z,137.02
2023-02-06T14:38:03.699Z,130.15
2023-02-06T14:40:36.580Z,136.43
2023-02-06T14:43:07.984Z,137.85
2023-02-06T14:46:31.090Z,139.82
2023-02-06T14:49:27.303Z,142.82
2023-02-06T14:51:56.346Z,150.68
2023-02-06T14:54:33.974Z,150.77
2023-02-06T14:57:04.763Z,143.90
2023-02-06T14:59:34.506Z,151.55
2023-02-06T15:02:15.472Z,160.77
2023-02-06T15:04:48.646Z,160.50
2023-02-06T15:07:24.594Z,151.73
2023-02-06T15:09:59.944Z,172.38
2023-02-06T15:12:30.344Z,167.25
2023-02-06T15:15:04.634Z,162.90
2023-02-06T15:17:34.546Z,179.18
2023-02-06T15:20:26.268Z,166.77
2023-02-06T15:23:04.978Z,176.23
2023-02-06T15:25:55.292Z,166.23
2023-02-06T15:28:26.704Z,167.68
2023-02-06T15:30:58.992Z,159.02
2023-02-06T15:33:29.694Z,163.38
2023-02-06T15:36:02.504Z,159.52
2023-02-06T15:38:33.493Z,165.00
2023-02-06T15:41:04.789Z,166.18
2023-02-06T15:43:34.414Z,157.27
2023-02-06T15:46:04.985Z,169.13
2023-02-06T15:48:36.784Z,158.82
2023-02-06T15:51:22.220Z,178.00
2023-02-06T15:53:53.307Z,156.07
2023-02-06T15:56:25.180Z,166.38
2023-02-06T15:58:59.375Z,170.68
2023-02-06T16:01:31.820Z,158.10
2023-02-06T16:04:05.006Z,169.23
2023-02-06T16:06:35.973Z,142.85
2023-02-06T16:09:08.528Z,169.73
2023-02-06T16:11:50.667Z,155.02
2023-02-06T16:14:25.969Z,145.60
2023-02-06T16:17:02.352Z,139.32
2023-02-06T16:19:47.974Z,169.68
2023-02-06T16:22:23.864Z,155.38
2023-02-06T16:24:55.715Z,151.73
2023-02-06T16:27:26.553Z,142.40
2023-02-06T16:29:57.473Z,148.55
2023-02-06T16:32:31.272Z,141.60
2023-02-06T16:35:01.410Z,141.52
2023-02-06T16:37:32.193Z,116.63
2023-02-06T16:40:01.430Z,132.27
2023-02-06T16:42:35.499Z,136.83
2023-02-06T16:45:09.460Z,151.38
2023-02-06T16:47:38.407Z,131.77
2023-02-06T16:50:10.190Z,151.68
2023-02-06T16:52:42.780Z,139.05
2023-02-06T16:55:19.335Z,144.80
2023-02-06T16:57:50.307Z,145.68
2023-02-06T17:02:52.095Z,139.40
2023-02-06T17:05:22.669Z,144.15
2023-02-06T17:07:53.856Z,153.43
2023-02-06T17:10:25.321Z,138.48
2023-02-06T17:12:54.394Z,141.52
2023-02-06T17:15:23.413Z,145.88
2023-02-06T17:17:54.681Z,142.65
2023-02-06T17:20:29.677Z,142.57
2023-02-06T17:22:59.844Z,144.27
2023-02-06T17:25:28.987Z,140.60
2023-02-06T17:27:58.256Z,152.80
2023-02-06T17:30:27.883Z,158.17
2023-02-06T17:32:57.969Z,159.50
2023-02-06T17:35:26.910Z,155.23
2023-02-06T17:37:55.557Z,150.07
2023-02-06T17:40:27.362Z,160.80
2023-02-06T17:42:56.977Z,165.35
2023-02-06T17:45:26.324Z,166.63
2023-02-06T17:47:55.670Z,147.87
2023-02-06T17:50:25.933Z,171.50
2023-02-06T17:52:56.362Z,163.20
2023-02-06T17:55:27.461Z,140.73
2023-02-06T17:57:56.660Z,168.00
2023-02-06T18:00:26.414Z,176.65
2023-02-06T18:02:56.768Z,177.05
2023-02-06T18:05:26.226Z,185.05
2023-02-06T18:07:55.155Z,135.87
2023-02-06T18:10:26.924Z,167.27
2023-02-06T18:12:56.151Z,159.15
2023-02-06T18:15:25.294Z,165.52
2023-02-06T18:17:55.124Z,181.55
2023-02-06T18:20:24.072Z,173.40
2023-02-06T18:22:52.896Z,180.60
2023-02-06T18:25:22.347Z,172.55
2023-02-06T18:27:53.135Z,176.43
2023-02-06T18:30:22.450Z,176.95
2023-02-06T18:32:51.788Z,188.70
2023-02-06T18:35:20.872Z,191.33
2023-02-06T18:37:50.209Z,161.13
2023-02-06T18:40:19.601Z,177.27
2023-02-06T18:42:54.628Z,177.43
2023-02-06T18:45:31.213Z,182.55
2023-02-06T18:48:00.240Z,174.63
2023-02-06T18:50:29.751Z,179.00
2023-02-06T18:52:59.310Z,190.43
2023-02-06T18:55:28.086Z,189.23
2023-02-06T18:57:57.130Z,141.30
2023-02-06T19:00:27.818Z,199.50
2023-02-06T19:02:59.107Z,191.25
2023-02-06T19:05:29.143Z,191.23
2023-02-06T19:07:57.967Z,200.93
2023-02-06T19:10:27.110Z,192.33
2023-02-06T19:12:56.262Z,213.90
2023-02-06T19:15:25.360Z,215.13
2023-02-06T19:17:55.932Z,145.05
2023-02-06T19:20:25.288Z,207.63
2023-02-06T19:22:54.208Z,216.63
2023-02-06T19:25:23.555Z,215.55
2023-02-06T19:27:52.636Z,221.50
2023-02-06T19:30:21.758Z,207.85
2023-02-06T19:32:51.623Z,165.43
2023-02-06T19:35:22.129Z,210.95
2023-02-06T19:37:51.959Z,211.27
2023-02-06T19:45:20.100Z,218.70
2023-02-06T19:47:49.178Z,183.05
2023-02-06T19:50:18.326Z,210.10
2023-02-06T19:52:48.387Z,220.18
2023-02-06T19:55:17.514Z,215.88
2023-02-06T19:57:46.636Z,228.88
2023-02-06T20:00:16.288Z,231.13
2023-02-06T20:02:46.481Z,220.40
2023-02-06T20:05:15.520Z,227.32
2023-02-06T20:07:44.302Z,218.43
2023-02-06T20:10:14.715Z,202.35
2023-02-06T20:12:43.668Z,208.27
2023-02-06T20:15:13.234Z,218.65
2023-02-06T20:17:42.468Z,216.73
2023-02-06T20:20:12.903Z,218.07
2023-02-06T20:25:10.982Z,211.27
2023-02-06T20:27:41.526Z,208.50
2023-02-06T20:30:11.744Z,209.25
2023-02-06T20:32:41.176Z,201.70
2023-02-06T20:35:10.432Z,159.70
2023-02-06T20:37:40.018Z,197.48
2023-02-06T20:40:10.847Z,213.25
2023-02-06T20:42:44.800Z,203.10
2023-02-06T20:45:13.901Z,199.75
2023-02-06T20:47:42.907Z,218.07
2023-02-06T20:50:12.812Z,202.30
2023-02-06T20:52:41.563Z,195.10
2023-02-06T20:55:11.029Z,198.68
2023-02-06T20:57:41.449Z,203.63
2023-02-06T21:00:13.256Z,195.00
2023-02-06T21:02:42.268Z,189.43
2023-02-06T21:05:11.251Z,196.93
2023-02-06T21:07:40.275Z,186.90
2023-02-06T21:10:09.735Z,157.50
2023-02-06T21:12:38.727Z,144.70
2023-02-06T21:15:10.434Z,185.23
2023-02-06T21:17:39.489Z,186.90
2023-02-06T21:20:09.757Z,182.23
2023-02-06T21:22:38.479Z,178.70
2023-02-06T21:25:08.101Z,183.35
2023-02-06T21:27:37.446Z,177.00
2023-02-06T21:30:09.325Z,134.93
2023-02-06T21:32:38.327Z,175.48
2023-02-06T21:35:09.717Z,170.70
2023-02-06T21:37:39.366Z,173.85
2023-02-06T21:40:08.761Z,171.20
2023-02-06T21:42:37.719Z,179.88
2023-02-06T21:45:09.483Z,174.35
2023-02-06T21:47:38.531Z,183.40
2023-02-06T21:50:08.529Z,185.00
2023-02-06T21:52:37.472Z,183.27
2023-02-06T21:55:07.702Z,194.50
2023-02-06T21:57:36.854Z,187.38
2023-02-06T22:00:06.759Z,211.27
2023-02-06T22:02:42.984Z,207.98
2023-02-06T22:05:12.016Z,205.80
2023-02-06T22:07:40.731Z,191.30
2023-02-06T22:10:11.003Z,205.43
2023-02-06T22:12:40.151Z,204.40
2023-02-06T22:15:10.233Z,198.55
2023-02-06T22:20:10.030Z,176.38
2023-02-06T22:22:38.832Z,174.82
2023-02-06T22:25:08.614Z,146.50
2023-02-06T22:27:37.598Z,183.15
2023-02-06T22:30:07.403Z,195.00
2023-02-06T22:32:38.151Z,178.93
2023-02-06T22:35:08.880Z,192.40
2023-02-06T22:37:37.482Z,186.55
2023-02-06T22:40:07.402Z,180.77
2023-02-06T22:42:36.606Z,180.57
2023-02-06T22:45:06.396Z,144.80
2023-02-06T22:47:35.463Z,170.20
2023-02-06T22:50:04.490Z,175.85
2023-02-06T22:52:52.225Z,154.10
2023-02-06T22:55:21.250Z,162.00
2023-02-06T22:57:50.121Z,152.02
2023-02-06T23:00:19.311Z,152.02
2023-02-06T23:02:49.545Z,151.40
2023-02-06T23:25:21.556Z,128.63
2023-02-06T23:27:50.784Z,136.05
2023-02-06T23:30:23.060Z,139.90
2023-02-06T23:32:52.250Z,136.70
2023-02-06T23:35:22.374Z,129.02
2023-02-06T23:37:51.097Z,129.20
2023-02-06T23:40:22.097Z,121.55
2023-02-06T23:42:51.156Z,133.95
2023-02-06T23:45:20.205Z,126.00
2023-02-06T23:47:49.101Z,132.98
2023-02-06T23:50:18.348Z,143.55
2023-02-06T23:52:47.005Z,128.70
2023-02-06T23:55:15.986Z,128.88
2023-02-06T23:57:46.640Z,125.72
